EHAM/AMS METAR and TAF weather

Enter ICAO airport designator
Station Type Date Time Source
EHAM METAR 2020/07/14 17:25 UTC NOAA

EHAM 141725Z 32009KT 290V350 9999 FEW023 17/12 Q1014 NOSIG


Station Type Date Time Source
EHAM Decoded METAR 2020/07/14 17:25 UTC NOAA

Amsterdam Airport Schiphol, Netherlands (EHAM) 52-18N 004-46E -2M
Jul 14, 2020 - 01:25 PM EDT / 2020.07.14 1725 UTC
Wind: from the NW (320 degrees) at 10 MPH (9 KT) (direction variable):0
Visibility: greater than 7 mile(s):0
Sky conditions: mostly clear
Temperature: 62 F (17 C)
Dew Point: 53 F (12 C)
Relative Humidity: 72%
Pressure (altimeter): 29.94 in. Hg (1014 hPa)
ob: EHAM 141725Z 32009KT 290V350 9999 FEW023 17/12 Q1014 NOSIG
cycle: 17

Station Type Date Time Source
EHAM TAF 2020/07/14 18:27 UTC NOAA

TAF TAF EHAM 141659Z 1418/1524 31007KT 9999 SCT025 PROB30
TEMPO 1509/1512 7000 -SHRA SCT025TCU

Example: see airport list